Time;durP1;ratioP1;P1;durP2;ratioP2;P2;SDS_P1;SDS_P2;PMS_P1;PMS_P2;Temp;Humidity;BMP_temperature;BMP_pressure;BME280_temperature;BME280_humidity;BME280_pressure;Samples;Min_cycle;Max_cycle;Signal;HPM_P1;HPM_P2
2021/10/17 15:10:31;;;;;;;15.05;9.05;;;;;;;17.61;76.62;99128.19;5116756;27;20382;-86
2021/10/17 15:12:57;;;;;;;32.78;22.95;;;;;;;17.40;76.37;99116.00;5092810;28;20038;-86
2021/10/17 15:15:23;;;;;;;12.18;10.05;;;;;;;17.11;77.17;99081.53;5092565;28;20056;-86
2021/10/17 15:17:49;;;;;;;11.70;6.10;;;;;;;17.33;77.01;99130.31;5090776;28;20376;-86
2021/10/17 15:20:17;;;;;;;10.77;7.18;;;;;;;17.36;77.51;99134.94;5071729;28;20078;-84
2021/10/17 15:22:42;;;;;;;6.07;4.53;;;;;;;17.33;77.55;99140.69;5089617;28;20038;-84
2021/10/17 15:25:08;;;;;;;3.10;2.80;;;;;;;17.32;77.33;99133.56;5071646;28;20032;-83
2021/10/17 15:27:35;;;;;;;1.75;1.65;;;;;;;17.15;77.60;99121.22;5092002;28;20032;-85
2021/10/17 15:30:03;;;;;;;4.10;3.80;;;;;;;17.21;78.81;99141.69;5091865;28;20043;-82
2021/10/17 15:32:30;;;;;;;1.30;1.20;;;;;;;17.06;79.48;99128.38;5107648;28;20103;-84
2021/10/17 15:34:56;;;;;;;3.80;2.40;;;;;;;16.97;80.49;99131.22;5091894;28;20032;-84
2021/10/17 15:37:23;;;;;;;0.82;0.82;;;;;;;17.05;81.09;99149.19;5110210;28;20077;-84
2021/10/17 15:39:48;;;;;;;6.78;2.88;;;;;;;16.67;82.32;99107.09;5091988;28;20034;-84
2021/10/17 15:42:14;;;;;;;4.43;2.95;;;;;;;16.94;82.62;99150.91;5108528;28;20020;-85
2021/10/17 15:44:40;;;;;;;4.40;3.97;;;;;;;16.88;84.49;99161.91;5071741;28;20031;-83
2021/10/17 15:47:05;;;;;;;10.13;3.35;;;;;;;16.77;83.80;99142.09;5072273;28;20032;-86
2021/10/17 15:49:32;;;;;;;1.63;1.52;;;;;;;16.53;84.12;99141.16;5075456;28;20492;-86
2021/10/17 15:51:59;;;;;;;1.53;1.43;;;;;;;16.21;84.46;99084.78;5071492;28;20113;-85
2021/10/17 15:54:27;;;;;;;2.25;2.03;;;;;;;16.19;84.71;99117.94;5071760;28;20027;-86
2021/10/17 15:56:53;;;;;;;0.73;0.68;;;;;;;16.34;85.06;99159.13;5071700;28;20033;-85
2021/10/17 15:59:19;;;;;;;1.42;1.30;;;;;;;16.16;87.59;99110.50;5071591;28;20033;-85
2021/10/17 16:01:44;;;;;;;4.75;4.28;;;;;;;16.42;85.30;99152.78;5071316;28;20032;-85
2021/10/17 16:04:10;;;;;;;1.90;1.77;;;;;;;16.32;83.52;99158.84;5071624;28;20021;-88
2021/10/17 16:06:36;;;;;;;1.23;1.13;;;;;;;16.19;83.42;99145.06;5071469;28;20385;-89
2021/10/17 16:09:02;;;;;;;2.50;2.25;;;;;;;16.13;84.80;99138.53;5071354;28;20177;-90
2021/10/17 16:11:28;;;;;;;0.77;0.77;;;;;;;16.37;86.08;99184.09;5089599;28;20036;-92
2021/10/17 16:13:54;;;;;;;12.07;6.82;;;;;;;15.94;84.18;99148.09;5071234;28;20034;-89
2021/10/17 16:16:20;;;;;;;3.45;3.15;;;;;;;16.31;83.11;99196.34;5071512;28;20063;-88
2021/10/17 16:18:45;;;;;;;1.75;1.27;;;;;;;16.24;83.47;99180.66;5089478;28;20028;-90
2021/10/17 16:21:16;;;;;;;2.15;1.15;;;;;;;16.07;83.79;99159.91;5062079;28;20568;-88
2021/10/17 16:23:42;;;;;;;1.38;1.27;;;;;;;16.39;82.21;99200.38;5075552;28;20023;-84
2021/10/17 16:26:07;;;;;;;0.82;0.82;;;;;;;16.43;81.30;99195.41;5057756;28;20115;-86
2021/10/17 16:28:35;;;;;;;1.20;1.10;;;;;;;16.45;81.85;99202.09;5057562;28;20052;-85
2021/10/17 16:31:07;;;;;;;1.98;1.52;;;;;;;16.20;82.46;99169.69;5057932;28;20046;-87
2021/10/17 16:33:39;;;;;;;0.95;0.90;;;;;;;16.24;83.18;99192.59;5057423;28;20089;-84
2021/10/17 16:36:07;;;;;;;1.20;1.10;;;;;;;16.12;84.19;99207.44;5057369;28;20499;-85
2021/10/17 16:38:33;;;;;;;8.98;1.52;;;;;;;15.84;85.40;99211.41;5057480;28;20021;-85
2021/10/17 16:41:04;;;;;;;0.25;0.25;;;;;;;15.79;85.79;99209.22;5057425;28;20025;-87
2021/10/17 16:43:30;;;;;;;3.97;0.85;;;;;;;15.70;85.21;99223.13;5057428;28;20020;-85
2021/10/17 16:45:56;;;;;;;0.43;0.43;;;;;;;15.58;88.04;99229.56;5057584;28;20056;-86
2021/10/17 16:48:21;;;;;;;0.45;0.45;;;;;;;15.40;89.95;99235.78;5057546;28;20032;-91
2021/10/17 16:50:48;;;;;;;0.73;0.73;;;;;;;15.12;91.63;99229.31;5057646;28;20113;-86
2021/10/17 16:53:14;;;;;;;1.45;0.95;;;;;;;14.78;92.37;99207.09;5075239;28;20029;-87
2021/10/17 16:55:40;;;;;;;1.00;0.90;;;;;;;14.79;92.64;99228.13;5057447;28;20035;-90
2021/10/17 16:58:06;;;;;;;0.45;0.45;;;;;;;14.89;92.74;99252.03;5057208;28;20021;-87
2021/10/17 17:00:32;;;;;;;0.20;0.20;;;;;;;14.73;92.81;99255.75;5057183;28;20405;-90
2021/10/17 17:03:00;;;;;;;0.20;0.20;;;;;;;14.65;93.18;99258.00;5074753;28;20032;-89
2021/10/17 17:05:26;;;;;;;1.10;0.40;;;;;;;14.55;93.46;99255.59;5057186;28;20078;-89
2021/10/17 17:07:51;;;;;;;0.47;0.47;;;;;;;14.56;93.41;99246.78;5057094;28;20033;-93
2021/10/17 17:10:18;;;;;;;0.32;0.30;;;;;;;14.49;93.42;99260.94;5071677;28;20060;-89
2021/10/17 17:12:44;;;;;;;1.27;0.57;;;;;;;14.41;93.35;99253.28;5073723;28;20085;-90
2021/10/17 17:15:09;;;;;;;0.65;0.65;;;;;;;14.42;94.07;99269.53;5073478;28;20024;-89
2021/10/17 17:17:36;;;;;;;0.30;0.30;;;;;;;14.55;93.67;99284.16;5066820;28;20021;-89
2021/10/17 17:20:03;;;;;;;0.20;0.20;;;;;;;14.43;93.79;99282.19;5056682;28;20039;-87
2021/10/17 17:22:29;;;;;;;0.10;0.10;;;;;;;14.46;93.83;99284.09;5056718;28;20492;-90
2021/10/17 17:24:54;;;;;;;0.65;0.65;;;;;;;14.39;93.69;99292.66;5056888;28;20580;-92
2021/10/17 17:27:20;;;;;;;0.20;0.20;;;;;;;14.20;93.46;99258.31;5056599;28;20067;-87
2021/10/17 17:29:48;;;;;;;0.10;0.10;;;;;;;14.44;92.71;99289.31;5056341;28;20028;-86
2021/10/17 17:32:14;;;;;;;0.20;0.20;;;;;;;14.43;92.22;99290.53;5055628;28;20036;-89
2021/10/17 17:34:40;;;;;;;0.20;0.20;;;;;;;14.34;91.74;99293.22;5056337;28;20028;-88
2021/10/17 17:37:05;;;;;;;0.10;0.10;;;;;;;14.37;92.03;99306.22;5056694;28;20051;-88
2021/10/17 17:39:31;;;;;;;0.17;0.17;;;;;;;14.06;92.26;99256.00;5074182;28;20032;-88
2021/10/17 17:41:56;;;;;;;0.45;0.45;;;;;;;14.26;92.59;99300.22;5056037;28;20031;-88
2021/10/17 17:44:22;;;;;;;0.10;0.10;;;;;;;14.27;92.32;99301.78;5056531;28;20037;-87
2021/10/17 17:46:47;;;;;;;0.20;0.20;;;;;;;14.34;92.04;99311.88;5056130;28;20024;-87
2021/10/17 17:49:12;;;;;;;0.03;0.03;;;;;;;14.13;91.98;99271.66;5056059;28;20032;-87
2021/10/17 17:51:38;;;;;;;1.23;0.73;;;;;;;14.17;91.61;99305.66;5056085;28;20066;-89
2021/10/17 17:54:03;;;;;;;0.10;0.10;;;;;;;14.09;91.68;99307.13;5056050;28;20036;-88
2021/10/17 17:56:29;;;;;;;0.22;0.22;;;;;;;14.15;91.91;99311.69;5055767;28;20036;-87
2021/10/17 17:58:54;;;;;;;0.60;0.60;;;;;;;14.24;91.66;99314.56;5056150;28;20100;-87
2021/10/17 18:01:20;;;;;;;0.10;0.10;;;;;;;14.31;91.16;99316.31;5055912;28;20130;-87
2021/10/17 18:03:45;;;;;;;0.22;0.22;;;;;;;14.36;90.55;99317.75;5055587;28;20023;-86
2021/10/17 18:06:11;;;;;;;0.10;0.10;;;;;;;14.42;90.51;99322.34;5055802;28;20035;-85
2021/10/17 18:08:37;;;;;;;0.40;0.40;;;;;;;14.43;90.03;99317.56;5055334;28;20028;-87
2021/10/17 18:11:02;;;;;;;0.20;0.20;;;;;;;14.41;89.42;99294.97;5055994;28;20119;-87
2021/10/17 18:13:28;;;;;;;0.70;0.57;;;;;;;14.37;89.46;99286.78;5055674;28;20044;-87
2021/10/17 18:15:55;;;;;;;7.43;2.55;;;;;;;14.37;89.66;99300.66;5055510;28;20025;-86
2021/10/17 18:18:23;;;;;;;0.00;0.00;;;;;;;14.64;89.86;99326.00;5055681;28;20043;-88
2021/10/17 18:20:58;;;;;;;0.98;0.75;;;;;;;14.57;89.81;99319.88;5055642;28;20024;-87
2021/10/17 18:23:24;;;;;;;0.10;0.10;;;;;;;14.48;90.30;99334.47;5055820;28;20039;-87
2021/10/17 18:25:49;;;;;;;0.10;0.10;;;;;;;14.44;90.32;99339.38;5058507;28;20017;-86
2021/10/17 18:28:15;;;;;;;0.10;0.10;;;;;;;13.84;90.86;99258.69;5059619;28;20033;-87
2021/10/17 18:30:40;;;;;;;14.70;1.48;;;;;;;13.97;91.24;99278.13;5055437;28;20081;-87
2021/10/17 18:33:06;;;;;;;0.32;0.32;;;;;;;14.15;91.34;99294.22;5055287;28;20048;-87
2021/10/17 18:35:32;;;;;;;0.80;0.80;;;;;;;14.24;91.06;99322.13;5055691;28;20036;-87
2021/10/17 18:37:57;;;;;;;0.75;0.75;;;;;;;14.17;91.49;99297.31;5073073;28;20468;-87
2021/10/17 18:40:23;;;;;;;1.55;0.35;;;;;;;14.40;91.81;99341.50;5055311;28;20376;-88
2021/10/17 18:42:49;;;;;;;0.10;0.10;;;;;;;14.41;92.77;99340.25;5073184;28;20025;-87
2021/10/17 18:45:14;;;;;;;1.27;0.80;;;;;;;14.55;92.41;99356.47;5055104;28;20024;-87
2021/10/17 18:47:40;;;;;;;0.20;0.20;;;;;;;14.54;91.83;99343.78;5055263;28;20035;-87
2021/10/17 18:50:07;;;;;;;0.30;0.30;;;;;;;14.65;91.70;99360.91;5072639;28;20396;-86
2021/10/17 18:52:33;;;;;;;0.38;0.38;;;;;;;14.35;92.32;99308.63;5072932;28;20065;-85
2021/10/17 18:54:59;;;;;;;0.10;0.10;;;;;;;14.53;92.00;99342.22;5055402;28;20028;-86
2021/10/17 18:57:25;;;;;;;0.38;0.35;;;;;;;14.68;91.94;99358.44;5054754;28;20036;-87
2021/10/17 18:59:50;;;;;;;1.42;1.35;;;;;;;14.70;91.68;99356.00;5054869;28;20472;-85
2021/10/17 19:02:15;;;;;;;0.25;0.25;;;;;;;14.20;91.08;99305.56;5056340;28;20035;-84
2021/10/17 19:04:43;;;;;;;0.30;0.30;;;;;;;14.52;91.50;99345.47;5060778;28;20028;-89
2021/10/17 19:07:10;;;;;;;0.35;0.35;;;;;;;14.56;91.16;99366.38;5088233;28;20031;-89
2021/10/17 19:09:35;;;;;;;0.10;0.10;;;;;;;14.18;91.44;99321.91;5064569;28;20055;-88
2021/10/17 19:12:01;;;;;;;0.35;0.35;;;;;;;14.36;90.90;99348.34;5083260;28;20510;-86
2021/10/17 19:14:26;;;;;;;0.30;0.30;;;;;;;14.50;91.02;99376.50;5068670;28;20029;-88
2021/10/17 19:16:51;;;;;;;0.75;0.75;;;;;;;14.41;91.51;99356.94;5072133;28;20020;-87
2021/10/17 19:19:18;;;;;;;0.85;0.73;;;;;;;13.81;91.87;99278.22;5092867;28;20028;-90
2021/10/17 19:21:44;;;;;;;0.10;0.10;;;;;;;14.35;92.50;99369.00;5064938;28;20111;-90
2021/10/17 19:24:11;;;;;;;0.10;0.10;;;;;;;14.15;92.24;99338.69;5062126;28;20063;-90
2021/10/17 19:26:37;;;;;;;0.20;0.20;;;;;;;14.25;92.03;99362.59;5054855;28;20415;-90
2021/10/17 19:29:02;;;;;;;0.38;0.38;;;;;;;14.28;92.09;99353.38;5062781;28;20032;-91
2021/10/17 19:31:28;;;;;;;0.30;0.30;;;;;;;14.20;92.01;99363.94;5075167;28;20119;-91
2021/10/17 19:33:53;;;;;;;1.13;0.70;;;;;;;14.26;92.45;99383.59;5092571;28;20028;-91
2021/10/17 19:36:19;;;;;;;0.10;0.10;;;;;;;14.26;92.08;99378.03;5075092;28;20659;-91
2021/10/17 19:38:45;;;;;;;0.30;0.30;;;;;;;14.35;91.31;99382.91;5075606;28;20028;-91
2021/10/17 19:41:10;;;;;;;0.10;0.10;;;;;;;14.33;90.94;99382.59;5073767;28;20452;-90
2021/10/17 19:43:36;;;;;;;0.00;0.00;;;;;;;14.33;90.38;99377.03;5054572;28;20480;-90
2021/10/17 19:46:01;;;;;;;0.13;0.13;;;;;;;14.24;90.67;99372.13;5054809;28;20125;-91
2021/10/17 19:48:28;;;;;;;2.47;0.93;;;;;;;13.97;90.50;99333.69;5072508;28;20028;-88
2021/10/17 19:50:54;;;;;;;1.10;0.73;;;;;;;14.26;90.10;99389.94;5054790;28;20029;-89
2021/10/17 19:53:19;;;;;;;0.80;0.80;;;;;;;14.31;90.14;99387.81;5054785;28;20035;-90
2021/10/17 19:55:45;;;;;;;0.17;0.17;;;;;;;14.30;89.88;99387.03;5055447;28;20116;-90
2021/10/17 19:58:10;;;;;;;1.10;0.50;;;;;;;14.35;90.26;99400.38;5058826;28;20472;-89
2021/10/17 20:00:36;;;;;;;0.40;0.40;;;;;;;14.27;91.02;99385.16;5058507;28;20056;-88
2021/10/17 20:03:01;;;;;;;0.20;0.20;;;;;;;14.28;91.44;99381.91;5058183;28;20086;-89
2021/10/17 20:05:27;;;;;;;0.15;0.15;;;;;;;13.81;92.13;99322.66;5058724;28;20078;-88
2021/10/17 20:07:56;;;;;;;0.17;0.17;;;;;;;13.91;92.35;99376.34;5075546;28;20098;-89
2021/10/17 20:10:22;;;;;;;0.20;0.20;;;;;;;14.09;91.57;99393.28;5057938;28;20063;-89
2021/10/17 20:12:47;;;;;;;0.52;0.52;;;;;;;14.00;92.35;99388.34;5068529;28;20086;-88
2021/10/17 20:15:13;;;;;;;0.10;0.10;;;;;;;14.10;92.10;99400.38;5086782;28;20438;-89
2021/10/17 20:17:38;;;;;;;0.25;0.25;;;;;;;14.04;92.33;99377.94;5086408;28;20036;-89
2021/10/17 20:20:04;;;;;;;0.20;0.20;;;;;;;14.28;91.86;99392.28;5085097;28;20468;-89
2021/10/17 20:22:30;;;;;;;0.20;0.20;;;;;;;14.09;91.87;99357.94;5072080;28;20032;-87
2021/10/17 20:24:56;;;;;;;0.20;0.20;;;;;;;13.70;92.28;99309.09;5078023;28;20040;-88
2021/10/17 20:27:21;;;;;;;0.55;0.55;;;;;;;14.20;92.38;99399.28;5068828;28;20085;-88
2021/10/17 20:29:47;;;;;;;0.82;0.82;;;;;;;14.12;92.74;99384.81;5057709;28;20025;-87
2021/10/17 20:32:12;;;;;;;1.33;1.33;;;;;;;14.21;92.39;99401.63;5061590;28;20025;-88
2021/10/17 20:34:40;;;;;;;1.55;1.02;;;;;;;14.01;92.34;99358.56;5057628;28;20036;-87
2021/10/17 20:37:07;;;;;;;3.72;2.50;;;;;;;14.30;91.23;99406.50;5089836;28;20026;-89
2021/10/17 20:39:33;;;;;;;3.60;1.35;;;;;;;14.12;91.48;99365.34;5069171;28;20036;-90
2021/10/17 20:42:07;;;;;;;1.42;0.82;;;;;;;14.49;91.03;99397.19;5057035;28;20060;-85
2021/10/17 20:44:34;;;;;;;1.55;1.23;;;;;;;14.44;91.82;99397.75;5064528;28;20031;-88
2021/10/17 20:47:00;;;;;;;0.75;0.75;;;;;;;14.51;90.50;99408.66;5062311;28;20024;-88
2021/10/17 20:49:27;;;;;;;0.55;0.55;;;;;;;14.24;91.22;99394.38;5073673;28;20480;-88
2021/10/17 20:51:53;;;;;;;0.30;0.30;;;;;;;14.22;92.14;99405.97;5067761;28;20120;-89
2021/10/17 20:54:19;;;;;;;0.65;0.65;;;;;;;14.25;92.11;99398.72;5057464;28;20081;-89
2021/10/17 20:56:44;;;;;;;0.40;0.40;;;;;;;14.08;92.04;99389.72;5057536;28;20037;-89
2021/10/17 20:59:10;;;;;;;0.90;0.40;;;;;;;14.10;93.21;99392.06;5058511;28;20119;-90
2021/10/17 21:01:35;;;;;;;0.73;0.73;;;;;;;14.14;92.31;99407.38;5057455;28;20028;-89
2021/10/17 21:04:01;;;;;;;2.28;1.92;;;;;;;14.14;92.01;99409.38;5059552;28;20032;-89
2021/10/17 21:06:26;;;;;;;1.48;1.42;;;;;;;14.04;92.62;99393.81;5049090;28;20023;-90
2021/10/17 21:08:55;;;;;;;2.25;2.05;;;;;;;14.24;92.06;99419.38;5075223;28;20057;-90
2021/10/17 21:11:22;;;;;;;0.98;0.98;;;;;;;14.21;92.12;99406.41;5057077;28;20032;-91
2021/10/17 21:13:48;;;;;;;2.00;1.85;;;;;;;13.80;92.00;99360.00;5056945;28;20040;-90
2021/10/17 21:16:14;;;;;;;2.95;2.10;;;;;;;14.17;91.83;99403.72;5056959;28;20035;-90
2021/10/17 21:18:39;;;;;;;1.30;1.20;;;;;;;13.92;91.52;99384.25;5074845;28;20033;-91
2021/10/17 21:21:05;;;;;;;0.90;0.90;;;;;;;14.15;91.57;99405.38;5057001;28;20017;-87
2021/10/17 21:23:30;;;;;;;1.17;0.85;;;;;;;14.17;91.53;99414.81;5057005;28;20028;-86
2021/10/17 21:25:56;;;;;;;0.82;0.82;;;;;;;14.19;91.43;99420.72;5062283;28;20070;-87
2021/10/17 21:28:21;;;;;;;1.17;1.17;;;;;;;14.14;91.83;99404.59;5074377;28;20165;-86
2021/10/17 21:30:47;;;;;;;1.80;1.65;;;;;;;14.15;91.51;99405.38;5056799;28;20029;-87
2021/10/17 21:33:13;;;;;;;0.32;0.32;;;;;;;13.71;91.62;99393.19;5057992;28;20149;-87
2021/10/17 21:35:38;;;;;;;2.35;2.15;;;;;;;13.89;92.11;99418.47;5037117;28;20112;-87
2021/10/17 21:38:03;;;;;;;1.15;1.10;;;;;;;13.63;91.48;99373.19;5053431;28;20466;-86
2021/10/17 21:40:29;;;;;;;1.23;1.17;;;;;;;13.79;91.89;99405.66;5074451;28;20025;-87
2021/10/17 21:42:54;;;;;;;0.47;0.47;;;;;;;13.83;91.67;99411.88;5065686;28;20036;-88
2021/10/17 21:45:20;;;;;;;1.05;0.90;;;;;;;13.75;91.86;99416.88;5056813;28;20027;-89
2021/10/17 21:47:45;;;;;;;1.10;1.02;;;;;;;13.75;91.56;99416.09;5056260;28;20124;-87
2021/10/17 21:50:11;;;;;;;0.85;0.85;;;;;;;13.79;91.77;99412.00;5036491;28;20086;-88
2021/10/17 21:52:36;;;;;;;1.27;1.23;;;;;;;13.82;91.88;99427.00;5075913;28;20539;-88
2021/10/17 21:55:02;;;;;;;0.60;0.45;;;;;;;13.51;92.06;99370.38;5093009;28;20062;-87
2021/10/17 21:57:27;;;;;;;1.42;1.33;;;;;;;13.72;91.44;99411.41;5065142;28;20028;-88
2021/10/17 21:59:53;;;;;;;3.92;1.83;;;;;;;13.52;91.25;99411.56;5067271;28;20439;-89
2021/10/17 22:02:18;;;;;;;2.13;2.03;;;;;;;13.34;91.20;99366.88;5056288;28;20119;-87
2021/10/17 22:04:44;;;;;;;1.58;1.58;;;;;;;13.54;90.73;99411.91;5067151;28;20414;-87
2021/10/17 22:07:09;;;;;;;1.60;1.55;;;;;;;13.54;90.77;99413.91;5063928;28;20448;-87
2021/10/17 22:09:35;;;;;;;2.05;1.95;;;;;;;13.34;90.40;99380.75;5055392;28;20048;-87
2021/10/17 22:12:01;;;;;;;21.80;1.38;;;;;;;13.40;90.54;99412.31;5055974;28;20085;-86
2021/10/17 22:14:26;;;;;;;1.08;1.08;;;;;;;12.98;90.67;99337.28;5073817;28;20166;-88
2021/10/17 22:16:51;;;;;;;0.63;0.63;;;;;;;13.63;91.17;99420.38;5073340;28;20020;-87
2021/10/17 22:19:17;;;;;;;0.73;0.73;;;;;;;13.68;90.62;99419.09;5063772;28;20024;-87
2021/10/17 22:21:42;;;;;;;2.42;1.27;;;;;;;13.77;90.83;99421.97;5064739;28;20024;-87
2021/10/17 22:24:08;;;;;;;0.30;0.30;;;;;;;13.68;90.04;99417.06;5056408;28;20028;-87
2021/10/17 22:26:34;;;;;;;1.08;1.08;;;;;;;13.66;90.69;99391.75;5056088;28;20049;-87
2021/10/17 22:28:59;;;;;;;0.82;0.82;;;;;;;13.86;90.74;99422.88;5074882;28;20086;-86
2021/10/17 22:31:25;;;;;;;0.52;0.52;;;;;;;13.57;92.17;99380.50;5077396;28;20035;-87
2021/10/17 22:33:50;;;;;;;1.42;1.38;;;;;;;13.82;92.96;99410.31;5067071;28;20032;-87
2021/10/17 22:36:16;;;;;;;5.78;1.42;;;;;;;13.92;92.12;99405.69;5061267;28;20060;-87
2021/10/17 22:38:42;;;;;;;0.30;0.30;;;;;;;13.83;92.83;99412.66;5055931;28;20024;-87
2021/10/17 22:41:07;;;;;;;0.90;0.85;;;;;;;13.85;91.90;99410.25;5075088;28;20036;-87
2021/10/17 22:43:33;;;;;;;0.70;0.70;;;;;;;13.88;92.93;99433.56;5093591;28;20055;-87
2021/10/17 22:45:58;;;;;;;0.85;0.82;;;;;;;13.73;92.62;99399.09;5069233;28;20139;-87
2021/10/17 22:48:24;;;;;;;1.48;1.13;;;;;;;13.71;93.30;99385.66;5059139;28;20035;-88
2021/10/17 22:50:49;;;;;;;2.55;1.17;;;;;;;13.81;93.44;99408.75;5091576;28;20550;-88
2021/10/17 22:53:15;;;;;;;0.57;0.57;;;;;;;13.91;93.35;99424.34;5065098;28;20035;-87
2021/10/17 22:55:40;;;;;;;0.82;0.82;;;;;;;13.64;93.78;99388.63;5059203;28;20016;-87
2021/10/17 22:58:06;;;;;;;0.22;0.22;;;;;;;13.85;93.47;99423.34;5073361;28;20024;-88
2021/10/17 23:00:32;;;;;;;0.50;0.50;;;;;;;13.99;93.33;99427.69;5073764;28;20027;-87
2021/10/17 23:02:58;;;;;;;0.85;0.85;;;;;;;13.98;93.33;99421.38;5055565;28;20029;-88
2021/10/17 23:05:23;;;;;;;1.02;0.93;;;;;;;13.91;93.20;99412.47;5055244;28;20033;-88
2021/10/17 23:07:49;;;;;;;0.93;0.93;;;;;;;13.96;93.64;99431.38;5055528;28;20116;-88
2021/10/17 23:10:14;;;;;;;1.95;1.23;;;;;;;13.95;93.66;99429.81;5054961;28;20044;-87
2021/10/17 23:12:40;;;;;;;1.45;1.35;;;;;;;13.98;93.88;99435.28;5054992;28;20046;-88
2021/10/17 23:15:09;;;;;;;0.93;0.93;;;;;;;13.89;93.97;99426.00;5055436;28;20021;-87
2021/10/17 23:17:34;;;;;;;0.63;0.63;;;;;;;13.83;94.74;99434.88;5073481;28;20033;-88
2021/10/17 23:20:00;;;;;;;0.85;0.82;;;;;;;13.77;94.33;99420.00;5085783;28;20047;-88
2021/10/17 23:22:26;;;;;;;1.10;1.08;;;;;;;13.85;94.07;99432.47;5071604;28;20024;-87
2021/10/17 23:24:52;;;;;;;0.35;0.35;;;;;;;13.66;94.45;99421.50;5073148;28;20468;-87
2021/10/17 23:27:17;;;;;;;0.75;0.75;;;;;;;13.73;93.92;99422.09;5055498;28;20522;-87
2021/10/17 23:29:43;;;;;;;0.82;0.82;;;;;;;13.69;93.37;99415.84;5055093;28;20078;-88
2021/10/17 23:32:08;;;;;;;1.45;1.35;;;;;;;13.80;93.59;99438.53;5058840;28;20500;-88
2021/10/17 23:34:34;;;;;;;0.60;0.60;;;;;;;13.86;94.01;99452.69;5059380;28;20044;-87
2021/10/17 23:36:59;;;;;;;0.40;0.40;;;;;;;13.71;93.38;99438.41;5062415;28;20035;-86
2021/10/17 23:39:25;;;;;;;0.82;0.82;;;;;;;13.81;93.99;99450.44;5071999;28;20025;-86
2021/10/17 23:41:50;;;;;;;0.45;0.45;;;;;;;13.77;93.48;99430.31;5066797;28;20028;-86
2021/10/17 23:44:15;;;;;;;0.40;0.40;;;;;;;13.73;94.33;99429.66;5067699;28;20028;-86
2021/10/17 23:46:41;;;;;;;1.67;1.60;;;;;;;13.85;94.70;99445.56;5065783;28;20035;-85
2021/10/17 23:49:06;;;;;;;0.73;0.73;;;;;;;13.50;94.21;99397.38;5073524;28;20024;-86
2021/10/17 23:51:32;;;;;;;0.77;0.77;;;;;;;13.37;94.40;99372.34;5078734;28;20028;-86
2021/10/17 23:53:57;;;;;;;0.40;0.40;;;;;;;13.31;94.96;99389.97;5071554;28;20085;-86
2021/10/17 23:56:23;;;;;;;1.55;1.08;;;;;;;13.63;95.00;99420.38;5071696;28;20036;-86
2021/10/17 23:58:48;;;;;;;1.30;1.25;;;;;;;13.80;95.21;99452.41;5058491;28;20024;-86
